sensor_id;sensor_type;location;lat;lon;timestamp;P1;durP1;ratioP1;P2;durP2;ratioP2
56039;SDS011;43937;41.366;2.072;2024-03-17T00:01:49;22.05;;;11.35;;
56039;SDS011;43937;41.366;2.072;2024-03-17T00:04:14;21.03;;;11.70;;
56039;SDS011;43937;41.366;2.072;2024-03-17T00:06:40;20.50;;;11.83;;
56039;SDS011;43937;41.366;2.072;2024-03-17T00:09:05;21.83;;;11.47;;
56039;SDS011;43937;41.366;2.072;2024-03-17T00:11:34;19.40;;;11.77;;
56039;SDS011;43937;41.366;2.072;2024-03-17T00:14:01;20.13;;;11.20;;
56039;SDS011;43937;41.366;2.072;2024-03-17T00:16:27;20.17;;;11.88;;
56039;SDS011;43937;41.366;2.072;2024-03-17T00:18:52;18.60;;;11.17;;
56039;SDS011;43937;41.366;2.072;2024-03-17T00:21:18;20.75;;;11.88;;
56039;SDS011;43937;41.366;2.072;2024-03-17T00:23:44;20.13;;;11.30;;
56039;SDS011;43937;41.366;2.072;2024-03-17T00:26:12;20.77;;;11.23;;
56039;SDS011;43937;41.366;2.072;2024-03-17T00:28:37;22.80;;;11.57;;
56039;SDS011;43937;41.366;2.072;2024-03-17T00:31:04;20.00;;;11.77;;
56039;SDS011;43937;41.366;2.072;2024-03-17T00:33:30;19.13;;;11.82;;
56039;SDS011;43937;41.366;2.072;2024-03-17T00:35:55;21.20;;;12.33;;
56039;SDS011;43937;41.366;2.072;2024-03-17T00:38:21;16.47;;;11.63;;
56039;SDS011;43937;41.366;2.072;2024-03-17T00:40:49;18.10;;;11.53;;
56039;SDS011;43937;41.366;2.072;2024-03-17T00:43:15;20.02;;;10.38;;
56039;SDS011;43937;41.366;2.072;2024-03-17T00:45:41;13.37;;;8.77;;
56039;SDS011;43937;41.366;2.072;2024-03-17T00:48:06;16.87;;;9.97;;
56039;SDS011;43937;41.366;2.072;2024-03-17T00:50:32;19.20;;;9.87;;
56039;SDS011;43937;41.366;2.072;2024-03-17T00:52:57;17.63;;;9.57;;
56039;SDS011;43937;41.366;2.072;2024-03-17T00:55:23;16.15;;;9.40;;
56039;SDS011;43937;41.366;2.072;2024-03-17T00:57:48;15.97;;;9.27;;
56039;SDS011;43937;41.366;2.072;2024-03-17T01:00:14;15.32;;;9.43;;
56039;SDS011;43937;41.366;2.072;2024-03-17T01:02:40;11.85;;;8.35;;
56039;SDS011;43937;41.366;2.072;2024-03-17T01:05:06;18.15;;;10.05;;
56039;SDS011;43937;41.366;2.072;2024-03-17T01:07:32;18.38;;;9.80;;
56039;SDS011;43937;41.366;2.072;2024-03-17T01:09:58;14.43;;;9.37;;
56039;SDS011;43937;41.366;2.072;2024-03-17T01:12:25;13.80;;;8.47;;
56039;SDS011;43937;41.366;2.072;2024-03-17T01:14:51;15.70;;;9.70;;
56039;SDS011;43937;41.366;2.072;2024-03-17T01:17:16;17.23;;;9.43;;
56039;SDS011;43937;41.366;2.072;2024-03-17T01:19:44;17.60;;;9.68;;
56039;SDS011;43937;41.366;2.072;2024-03-17T01:22:09;17.27;;;10.90;;
56039;SDS011;43937;41.366;2.072;2024-03-17T01:24:35;17.20;;;10.90;;
56039;SDS011;43937;41.366;2.072;2024-03-17T01:27:00;17.77;;;11.03;;
56039;SDS011;43937;41.366;2.072;2024-03-17T01:29:26;22.50;;;12.75;;
56039;SDS011;43937;41.366;2.072;2024-03-17T01:31:52;20.15;;;12.77;;
56039;SDS011;43937;41.366;2.072;2024-03-17T01:34:21;26.33;;;14.95;;
56039;SDS011;43937;41.366;2.072;2024-03-17T01:36:47;23.35;;;13.70;;
56039;SDS011;43937;41.366;2.072;2024-03-17T01:39:12;24.87;;;13.53;;
56039;SDS011;43937;41.366;2.072;2024-03-17T01:41:38;22.25;;;13.88;;
56039;SDS011;43937;41.366;2.072;2024-03-17T01:44:04;22.17;;;13.93;;
56039;SDS011;43937;41.366;2.072;2024-03-17T01:46:29;22.97;;;14.50;;
56039;SDS011;43937;41.366;2.072;2024-03-17T01:48:55;22.87;;;13.77;;
56039;SDS011;43937;41.366;2.072;2024-03-17T01:51:20;26.95;;;15.85;;
56039;SDS011;43937;41.366;2.072;2024-03-17T01:53:47;28.73;;;14.80;;
56039;SDS011;43937;41.366;2.072;2024-03-17T01:56:13;27.23;;;16.23;;
56039;SDS011;43937;41.366;2.072;2024-03-17T01:58:42;24.43;;;15.60;;
56039;SDS011;43937;41.366;2.072;2024-03-17T02:01:09;23.50;;;15.93;;
56039;SDS011;43937;41.366;2.072;2024-03-17T02:03:34;29.52;;;16.92;;
56039;SDS011;43937;41.366;2.072;2024-03-17T02:06:00;30.23;;;17.70;;
56039;SDS011;43937;41.366;2.072;2024-03-17T02:08:25;28.50;;;16.87;;
56039;SDS011;43937;41.366;2.072;2024-03-17T02:10:52;26.63;;;16.50;;
56039;SDS011;43937;41.366;2.072;2024-03-17T02:13:19;24.95;;;17.23;;
56039;SDS011;43937;41.366;2.072;2024-03-17T02:15:46;28.98;;;18.75;;
56039;SDS011;43937;41.366;2.072;2024-03-17T02:18:11;24.73;;;16.83;;
56039;SDS011;43937;41.366;2.072;2024-03-17T02:20:37;22.87;;;15.80;;
56039;SDS011;43937;41.366;2.072;2024-03-17T02:23:22;29.55;;;17.30;;
56039;SDS011;43937;41.366;2.072;2024-03-17T02:25:51;30.73;;;17.63;;
56039;SDS011;43937;41.366;2.072;2024-03-17T02:28:16;29.25;;;17.45;;
56039;SDS011;43937;41.366;2.072;2024-03-17T02:30:42;27.80;;;17.47;;
56039;SDS011;43937;41.366;2.072;2024-03-17T02:33:07;28.40;;;17.90;;
56039;SDS011;43937;41.366;2.072;2024-03-17T02:35:33;29.60;;;17.53;;
56039;SDS011;43937;41.366;2.072;2024-03-17T02:37:58;28.87;;;17.90;;
56039;SDS011;43937;41.366;2.072;2024-03-17T02:40:23;26.07;;;16.90;;
56039;SDS011;43937;41.366;2.072;2024-03-17T02:42:49;21.80;;;16.07;;
56039;SDS011;43937;41.366;2.072;2024-03-17T02:45:15;25.27;;;17.00;;
56039;SDS011;43937;41.366;2.072;2024-03-17T02:47:41;27.02;;;17.35;;
56039;SDS011;43937;41.366;2.072;2024-03-17T02:50:07;26.90;;;16.43;;
56039;SDS011;43937;41.366;2.072;2024-03-17T02:52:34;30.42;;;17.85;;
56039;SDS011;43937;41.366;2.072;2024-03-17T02:54:59;25.90;;;16.43;;
56039;SDS011;43937;41.366;2.072;2024-03-17T02:57:25;25.80;;;16.07;;
56039;SDS011;43937;41.366;2.072;2024-03-17T02:59:54;27.87;;;17.00;;
56039;SDS011;43937;41.366;2.072;2024-03-17T03:02:20;30.35;;;16.70;;
56039;SDS011;43937;41.366;2.072;2024-03-17T03:04:46;29.42;;;17.58;;
56039;SDS011;43937;41.366;2.072;2024-03-17T03:07:12;28.53;;;17.50;;
56039;SDS011;43937;41.366;2.072;2024-03-17T03:09:37;30.03;;;18.27;;
56039;SDS011;43937;41.366;2.072;2024-03-17T03:12:03;26.88;;;16.83;;
56039;SDS011;43937;41.366;2.072;2024-03-17T03:14:29;30.05;;;16.50;;
56039;SDS011;43937;41.366;2.072;2024-03-17T03:16:55;25.33;;;14.55;;
56039;SDS011;43937;41.366;2.072;2024-03-17T03:19:20;22.17;;;13.70;;
56039;SDS011;43937;41.366;2.072;2024-03-17T03:21:46;23.85;;;14.57;;
56039;SDS011;43937;41.366;2.072;2024-03-17T03:24:13;24.47;;;14.50;;
56039;SDS011;43937;41.366;2.072;2024-03-17T03:26:39;22.58;;;14.02;;
56039;SDS011;43937;41.366;2.072;2024-03-17T03:29:04;23.70;;;13.77;;
56039;SDS011;43937;41.366;2.072;2024-03-17T03:31:31;24.65;;;14.10;;
56039;SDS011;43937;41.366;2.072;2024-03-17T03:33:57;22.23;;;14.25;;
56039;SDS011;43937;41.366;2.072;2024-03-17T03:36:26;20.52;;;13.20;;
56039;SDS011;43937;41.366;2.072;2024-03-17T03:38:52;22.85;;;13.13;;
56039;SDS011;43937;41.366;2.072;2024-03-17T03:41:18;20.38;;;12.38;;
56039;SDS011;43937;41.366;2.072;2024-03-17T03:43:44;18.70;;;11.87;;
56039;SDS011;43937;41.366;2.072;2024-03-17T03:46:11;19.60;;;11.80;;
56039;SDS011;43937;41.366;2.072;2024-03-17T03:48:37;17.37;;;12.17;;
56039;SDS011;43937;41.366;2.072;2024-03-17T03:51:05;17.70;;;12.63;;
56039;SDS011;43937;41.366;2.072;2024-03-17T03:53:32;27.10;;;13.93;;
56039;SDS011;43937;41.366;2.072;2024-03-17T03:55:59;22.03;;;13.80;;
56039;SDS011;43937;41.366;2.072;2024-03-17T03:58:27;22.55;;;14.63;;
56039;SDS011;43937;41.366;2.072;2024-03-17T04:00:54;22.20;;;15.20;;
56039;SDS011;43937;41.366;2.072;2024-03-17T04:03:20;23.92;;;15.27;;
56039;SDS011;43937;41.366;2.072;2024-03-17T04:05:45;21.80;;;15.07;;
56039;SDS011;43937;41.366;2.072;2024-03-17T04:08:11;22.03;;;15.37;;
56039;SDS011;43937;41.366;2.072;2024-03-17T04:10:36;22.23;;;15.10;;
56039;SDS011;43937;41.366;2.072;2024-03-17T04:13:02;23.80;;;15.33;;
56039;SDS011;43937;41.366;2.072;2024-03-17T04:15:28;21.42;;;15.02;;
56039;SDS011;43937;41.366;2.072;2024-03-17T04:17:53;23.23;;;15.07;;
56039;SDS011;43937;41.366;2.072;2024-03-17T04:20:19;23.47;;;15.03;;
56039;SDS011;43937;41.366;2.072;2024-03-17T04:22:44;19.83;;;14.27;;
56039;SDS011;43937;41.366;2.072;2024-03-17T04:25:10;20.70;;;14.17;;
56039;SDS011;43937;41.366;2.072;2024-03-17T04:27:36;20.77;;;13.50;;
56039;SDS011;43937;41.366;2.072;2024-03-17T04:30:03;20.95;;;13.52;;
56039;SDS011;43937;41.366;2.072;2024-03-17T04:32:31;19.02;;;13.73;;
56039;SDS011;43937;41.366;2.072;2024-03-17T04:34:56;24.08;;;14.20;;
56039;SDS011;43937;41.366;2.072;2024-03-17T04:37:22;20.23;;;13.82;;
56039;SDS011;43937;41.366;2.072;2024-03-17T04:39:55;24.30;;;14.40;;
56039;SDS011;43937;41.366;2.072;2024-03-17T04:42:22;22.83;;;14.95;;
56039;SDS011;43937;41.366;2.072;2024-03-17T04:44:48;24.35;;;14.73;;
56039;SDS011;43937;41.366;2.072;2024-03-17T04:47:13;24.17;;;14.75;;
56039;SDS011;43937;41.366;2.072;2024-03-17T04:49:39;26.07;;;15.07;;
56039;SDS011;43937;41.366;2.072;2024-03-17T04:52:06;25.13;;;14.57;;
56039;SDS011;43937;41.366;2.072;2024-03-17T04:54:32;22.95;;;14.38;;
56039;SDS011;43937;41.366;2.072;2024-03-17T04:56:58;22.45;;;15.27;;
56039;SDS011;43937;41.366;2.072;2024-03-17T04:59:24;26.40;;;15.10;;
56039;SDS011;43937;41.366;2.072;2024-03-17T05:01:50;23.92;;;14.80;;
56039;SDS011;43937;41.366;2.072;2024-03-17T05:04:15;26.13;;;16.85;;
56039;SDS011;43937;41.366;2.072;2024-03-17T05:06:41;23.83;;;15.93;;
56039;SDS011;43937;41.366;2.072;2024-03-17T05:09:11;28.40;;;15.97;;
56039;SDS011;43937;41.366;2.072;2024-03-17T05:11:38;26.27;;;16.42;;
56039;SDS011;43937;41.366;2.072;2024-03-17T05:14:04;24.45;;;15.02;;
56039;SDS011;43937;41.366;2.072;2024-03-17T05:16:29;24.80;;;14.63;;
56039;SDS011;43937;41.366;2.072;2024-03-17T05:18:55;26.60;;;15.60;;
56039;SDS011;43937;41.366;2.072;2024-03-17T05:21:21;23.80;;;15.05;;
56039;SDS011;43937;41.366;2.072;2024-03-17T05:23:47;19.98;;;14.10;;
56039;SDS011;43937;41.366;2.072;2024-03-17T05:26:13;22.40;;;14.95;;
56039;SDS011;43937;41.366;2.072;2024-03-17T05:28:39;21.35;;;14.80;;
56039;SDS011;43937;41.366;2.072;2024-03-17T05:31:05;25.77;;;15.27;;
56039;SDS011;43937;41.366;2.072;2024-03-17T05:33:30;23.23;;;15.27;;
56039;SDS011;43937;41.366;2.072;2024-03-17T05:35:57;29.50;;;15.93;;
56039;SDS011;43937;41.366;2.072;2024-03-17T05:38:24;28.75;;;15.68;;
56039;SDS011;43937;41.366;2.072;2024-03-17T05:40:56;24.38;;;15.00;;
56039;SDS011;43937;41.366;2.072;2024-03-17T05:43:27;26.00;;;15.27;;
56039;SDS011;43937;41.366;2.072;2024-03-17T05:45:53;22.40;;;14.43;;
56039;SDS011;43937;41.366;2.072;2024-03-17T05:48:23;27.73;;;14.52;;
56039;SDS011;43937;41.366;2.072;2024-03-17T05:50:52;25.00;;;15.00;;
56039;SDS011;43937;41.366;2.072;2024-03-17T05:53:17;22.23;;;14.63;;
56039;SDS011;43937;41.366;2.072;2024-03-17T05:55:44;23.98;;;14.65;;
56039;SDS011;43937;41.366;2.072;2024-03-17T05:58:10;25.55;;;15.30;;
56039;SDS011;43937;41.366;2.072;2024-03-17T06:00:37;24.42;;;14.45;;
56039;SDS011;43937;41.366;2.072;2024-03-17T06:03:03;23.35;;;14.32;;
56039;SDS011;43937;41.366;2.072;2024-03-17T06:05:36;23.42;;;14.63;;
56039;SDS011;43937;41.366;2.072;2024-03-17T06:08:05;22.55;;;14.75;;
56039;SDS011;43937;41.366;2.072;2024-03-17T06:10:33;22.87;;;14.83;;
56039;SDS011;43937;41.366;2.072;2024-03-17T06:13:00;28.40;;;15.43;;
56039;SDS011;43937;41.366;2.072;2024-03-17T06:15:26;27.20;;;15.27;;
56039;SDS011;43937;41.366;2.072;2024-03-17T06:17:52;26.90;;;15.90;;
56039;SDS011;43937;41.366;2.072;2024-03-17T06:20:21;26.70;;;14.98;;
56039;SDS011;43937;41.366;2.072;2024-03-17T06:22:48;25.02;;;14.88;;
56039;SDS011;43937;41.366;2.072;2024-03-17T06:25:14;26.67;;;14.93;;
56039;SDS011;43937;41.366;2.072;2024-03-17T06:27:39;28.98;;;14.98;;
56039;SDS011;43937;41.366;2.072;2024-03-17T06:30:05;27.00;;;15.20;;
56039;SDS011;43937;41.366;2.072;2024-03-17T06:32:32;27.45;;;14.60;;
56039;SDS011;43937;41.366;2.072;2024-03-17T06:35:03;23.98;;;15.07;;
56039;SDS011;43937;41.366;2.072;2024-03-17T06:37:29;25.48;;;14.77;;
56039;SDS011;43937;41.366;2.072;2024-03-17T06:39:54;24.23;;;14.60;;
56039;SDS011;43937;41.366;2.072;2024-03-17T06:42:20;26.37;;;15.20;;
56039;SDS011;43937;41.366;2.072;2024-03-17T06:44:45;23.47;;;14.27;;
56039;SDS011;43937;41.366;2.072;2024-03-17T06:47:11;25.75;;;14.10;;
56039;SDS011;43937;41.366;2.072;2024-03-17T06:49:37;22.35;;;13.52;;
56039;SDS011;43937;41.366;2.072;2024-03-17T06:52:02;26.02;;;14.38;;
56039;SDS011;43937;41.366;2.072;2024-03-17T06:54:28;24.67;;;14.30;;
56039;SDS011;43937;41.366;2.072;2024-03-17T06:56:53;22.53;;;14.27;;
56039;SDS011;43937;41.366;2.072;2024-03-17T06:59:19;22.52;;;14.32;;
56039;SDS011;43937;41.366;2.072;2024-03-17T07:01:46;22.58;;;13.90;;
56039;SDS011;43937;41.366;2.072;2024-03-17T07:04:12;22.80;;;14.10;;
56039;SDS011;43937;41.366;2.072;2024-03-17T07:06:37;28.30;;;14.50;;
56039;SDS011;43937;41.366;2.072;2024-03-17T07:09:03;23.90;;;13.70;;
56039;SDS011;43937;41.366;2.072;2024-03-17T07:11:28;25.50;;;13.83;;
56039;SDS011;43937;41.366;2.072;2024-03-17T07:13:54;22.52;;;13.63;;
56039;SDS011;43937;41.366;2.072;2024-03-17T07:16:19;20.87;;;13.43;;
56039;SDS011;43937;41.366;2.072;2024-03-17T07:18:47;24.02;;;13.45;;
56039;SDS011;43937;41.366;2.072;2024-03-17T07:21:12;21.37;;;12.27;;
56039;SDS011;43937;41.366;2.072;2024-03-17T07:23:38;22.87;;;12.60;;
56039;SDS011;43937;41.366;2.072;2024-03-17T07:26:04;23.35;;;12.48;;
56039;SDS011;43937;41.366;2.072;2024-03-17T07:28:29;19.70;;;11.63;;
56039;SDS011;43937;41.366;2.072;2024-03-17T07:30:56;20.45;;;11.57;;
56039;SDS011;43937;41.366;2.072;2024-03-17T07:33:23;18.13;;;10.95;;
56039;SDS011;43937;41.366;2.072;2024-03-17T07:35:50;32.90;;;13.60;;
56039;SDS011;43937;41.366;2.072;2024-03-17T07:38:17;15.05;;;10.25;;
56039;SDS011;43937;41.366;2.072;2024-03-17T07:40:43;15.40;;;10.00;;
56039;SDS011;43937;41.366;2.072;2024-03-17T07:43:10;16.85;;;10.00;;
56039;SDS011;43937;41.366;2.072;2024-03-17T07:45:35;17.98;;;9.75;;
56039;SDS011;43937;41.366;2.072;2024-03-17T07:48:00;15.23;;;8.93;;
56039;SDS011;43937;41.366;2.072;2024-03-17T07:50:26;14.97;;;9.80;;
56039;SDS011;43937;41.366;2.072;2024-03-17T07:52:52;19.17;;;10.38;;
56039;SDS011;43937;41.366;2.072;2024-03-17T07:55:17;18.35;;;11.18;;
56039;SDS011;43937;41.366;2.072;2024-03-17T07:57:43;20.37;;;10.20;;
56039;SDS011;43937;41.366;2.072;2024-03-17T08:00:08;19.83;;;10.70;;
56039;SDS011;43937;41.366;2.072;2024-03-17T08:02:41;19.00;;;10.67;;
56039;SDS011;43937;41.366;2.072;2024-03-17T08:05:10;23.25;;;11.30;;
56039;SDS011;43937;41.366;2.072;2024-03-17T08:07:35;18.70;;;10.70;;
56039;SDS011;43937;41.366;2.072;2024-03-17T08:10:01;22.00;;;11.05;;
56039;SDS011;43937;41.366;2.072;2024-03-17T08:12:28;20.07;;;10.90;;
56039;SDS011;43937;41.366;2.072;2024-03-17T08:14:55;20.00;;;11.02;;
56039;SDS011;43937;41.366;2.072;2024-03-17T08:17:20;23.33;;;11.50;;
56039;SDS011;43937;41.366;2.072;2024-03-17T08:19:46;20.73;;;10.30;;
56039;SDS011;43937;41.366;2.072;2024-03-17T08:22:12;20.98;;;11.60;;
56039;SDS011;43937;41.366;2.072;2024-03-17T08:24:38;18.52;;;11.20;;
56039;SDS011;43937;41.366;2.072;2024-03-17T08:27:04;20.73;;;11.80;;
56039;SDS011;43937;41.366;2.072;2024-03-17T08:29:29;19.40;;;11.27;;
56039;SDS011;43937;41.366;2.072;2024-03-17T08:31:55;21.73;;;11.93;;
56039;SDS011;43937;41.366;2.072;2024-03-17T08:34:20;17.70;;;11.20;;
56039;SDS011;43937;41.366;2.072;2024-03-17T08:36:46;25.03;;;11.67;;
56039;SDS011;43937;41.366;2.072;2024-03-17T08:39:11;20.53;;;11.73;;
56039;SDS011;43937;41.366;2.072;2024-03-17T08:41:37;20.67;;;10.43;;
56039;SDS011;43937;41.366;2.072;2024-03-17T08:44:02;14.70;;;9.37;;
56039;SDS011;43937;41.366;2.072;2024-03-17T08:46:29;12.75;;;8.90;;
56039;SDS011;43937;41.366;2.072;2024-03-17T08:48:54;14.65;;;8.63;;
56039;SDS011;43937;41.366;2.072;2024-03-17T08:51:20;16.55;;;9.30;;
56039;SDS011;43937;41.366;2.072;2024-03-17T08:53:46;15.82;;;9.80;;
56039;SDS011;43937;41.366;2.072;2024-03-17T08:56:11;15.23;;;9.53;;
56039;SDS011;43937;41.366;2.072;2024-03-17T08:58:37;18.23;;;12.20;;
56039;SDS011;43937;41.366;2.072;2024-03-17T09:01:03;19.37;;;12.37;;
56039;SDS011;43937;41.366;2.072;2024-03-17T09:03:30;16.57;;;11.57;;
56039;SDS011;43937;41.366;2.072;2024-03-17T09:05:55;17.83;;;13.50;;
56039;SDS011;43937;41.366;2.072;2024-03-17T09:08:24;20.13;;;13.47;;
56039;SDS011;43937;41.366;2.072;2024-03-17T09:10:51;16.83;;;13.10;;
56039;SDS011;43937;41.366;2.072;2024-03-17T09:13:19;17.27;;;12.70;;
56039;SDS011;43937;41.366;2.072;2024-03-17T09:15:59;16.55;;;13.57;;
56039;SDS011;43937;41.366;2.072;2024-03-17T09:18:28;17.05;;;14.13;;
56039;SDS011;43937;41.366;2.072;2024-03-17T09:23:23;20.02;;;14.90;;
56039;SDS011;43937;41.366;2.072;2024-03-17T09:26:02;21.20;;;14.63;;
56039;SDS011;43937;41.366;2.072;2024-03-17T09:28:29;21.97;;;15.20;;
56039;SDS011;43937;41.366;2.072;2024-03-17T09:30:55;20.52;;;15.95;;
56039;SDS011;43937;41.366;2.072;2024-03-17T09:33:21;25.85;;;17.80;;
56039;SDS011;43937;41.366;2.072;2024-03-17T09:38:27;24.40;;;17.45;;
56039;SDS011;43937;41.366;2.072;2024-03-17T09:40:52;22.23;;;17.58;;
56039;SDS011;43937;41.366;2.072;2024-03-17T09:43:22;21.25;;;16.27;;
56039;SDS011;43937;41.366;2.072;2024-03-17T09:45:48;25.33;;;17.13;;
56039;SDS011;43937;41.366;2.072;2024-03-17T09:48:16;23.15;;;16.77;;
56039;SDS011;43937;41.366;2.072;2024-03-17T09:50:48;21.08;;;16.63;;
56039;SDS011;43937;41.366;2.072;2024-03-17T09:53:17;21.83;;;17.92;;
56039;SDS011;43937;41.366;2.072;2024-03-17T09:55:56;22.05;;;17.58;;
56039;SDS011;43937;41.366;2.072;2024-03-17T09:58:23;23.58;;;19.00;;
56039;SDS011;43937;41.366;2.072;2024-03-17T10:00:49;22.48;;;18.45;;
56039;SDS011;43937;41.366;2.072;2024-03-17T10:06:11;21.45;;;17.50;;
56039;SDS011;43937;41.366;2.072;2024-03-17T10:08:41;22.90;;;17.10;;
56039;SDS011;43937;41.366;2.072;2024-03-17T10:11:06;21.93;;;17.67;;
56039;SDS011;43937;41.366;2.072;2024-03-17T10:13:32;21.10;;;16.70;;
56039;SDS011;43937;41.366;2.072;2024-03-17T10:15:57;21.42;;;17.00;;
56039;SDS011;43937;41.366;2.072;2024-03-17T10:18:23;21.23;;;17.90;;
56039;SDS011;43937;41.366;2.072;2024-03-17T10:20:49;19.77;;;16.83;;
56039;SDS011;43937;41.366;2.072;2024-03-17T10:23:21;22.33;;;17.50;;
56039;SDS011;43937;41.366;2.072;2024-03-17T10:25:47;21.97;;;17.37;;
56039;SDS011;43937;41.366;2.072;2024-03-17T10:28:13;21.95;;;17.70;;
56039;SDS011;43937;41.366;2.072;2024-03-17T10:30:40;22.20;;;18.30;;
56039;SDS011;43937;41.366;2.072;2024-03-17T10:33:07;23.98;;;17.70;;
56039;SDS011;43937;41.366;2.072;2024-03-17T10:35:47;22.95;;;16.92;;
56039;SDS011;43937;41.366;2.072;2024-03-17T10:38:13;21.38;;;16.05;;
56039;SDS011;43937;41.366;2.072;2024-03-17T10:40:39;20.25;;;15.93;;
56039;SDS011;43937;41.366;2.072;2024-03-17T10:43:05;19.40;;;16.05;;
56039;SDS011;43937;41.366;2.072;2024-03-17T10:45:32;18.65;;;16.65;;
56039;SDS011;43937;41.366;2.072;2024-03-17T10:48:03;20.80;;;15.63;;
56039;SDS011;43937;41.366;2.072;2024-03-17T10:50:36;20.83;;;13.98;;
56039;SDS011;43937;41.366;2.072;2024-03-17T10:53:03;18.17;;;14.60;;
56039;SDS011;43937;41.366;2.072;2024-03-17T10:55:42;18.77;;;14.07;;
56039;SDS011;43937;41.366;2.072;2024-03-17T11:00:58;16.70;;;14.38;;
56039;SDS011;43937;41.366;2.072;2024-03-17T11:03:28;19.55;;;14.75;;
56039;SDS011;43937;41.366;2.072;2024-03-17T11:05:56;19.23;;;16.52;;
56039;SDS011;43937;41.366;2.072;2024-03-17T11:08:23;20.00;;;14.40;;
56039;SDS011;43937;41.366;2.072;2024-03-17T11:10:50;22.35;;;17.02;;
56039;SDS011;43937;41.366;2.072;2024-03-17T11:13:28;17.30;;;15.35;;
56039;SDS011;43937;41.366;2.072;2024-03-17T11:15:55;20.77;;;16.90;;
56039;SDS011;43937;41.366;2.072;2024-03-17T11:20:56;21.33;;;15.20;;
56039;SDS011;43937;41.366;2.072;2024-03-17T11:23:41;19.77;;;16.27;;
56039;SDS011;43937;41.366;2.072;2024-03-17T11:26:08;20.38;;;16.60;;
56039;SDS011;43937;41.366;2.072;2024-03-17T11:36:55;17.87;;;14.20;;
56039;SDS011;43937;41.366;2.072;2024-03-17T11:39:45;15.43;;;12.43;;
56039;SDS011;43937;41.366;2.072;2024-03-17T11:42:21;16.58;;;13.48;;
56039;SDS011;43937;41.366;2.072;2024-03-17T11:44:57;17.17;;;15.00;;
56039;SDS011;43937;41.366;2.072;2024-03-17T11:47:32;20.73;;;16.58;;
56039;SDS011;43937;41.366;2.072;2024-03-17T11:50:00;18.48;;;16.48;;
56039;SDS011;43937;41.366;2.072;2024-03-17T11:52:28;18.92;;;15.98;;
56039;SDS011;43937;41.366;2.072;2024-03-17T11:54:53;15.07;;;13.47;;
56039;SDS011;43937;41.366;2.072;2024-03-17T11:57:24;16.65;;;13.23;;
56039;SDS011;43937;41.366;2.072;2024-03-17T11:59:51;14.90;;;13.10;;
56039;SDS011;43937;41.366;2.072;2024-03-17T12:02:22;17.47;;;14.30;;
56039;SDS011;43937;41.366;2.072;2024-03-17T12:05:01;15.52;;;13.90;;
56039;SDS011;43937;41.366;2.072;2024-03-17T12:07:27;19.93;;;17.70;;
56039;SDS011;43937;41.366;2.072;2024-03-17T12:09:55;19.77;;;16.17;;
56039;SDS011;43937;41.366;2.072;2024-03-17T12:14:49;18.48;;;16.67;;
56039;SDS011;43937;41.366;2.072;2024-03-17T12:17:22;18.70;;;16.90;;
56039;SDS011;43937;41.366;2.072;2024-03-17T12:19:49;21.15;;;18.95;;
56039;SDS011;43937;41.366;2.072;2024-03-17T12:22:16;19.70;;;17.58;;
56039;SDS011;43937;41.366;2.072;2024-03-17T12:24:47;17.73;;;15.83;;
56039;SDS011;43937;41.366;2.072;2024-03-17T12:27:18;18.73;;;16.17;;
56039;SDS011;43937;41.366;2.072;2024-03-17T12:29:44;17.23;;;15.48;;
56039;SDS011;43937;41.366;2.072;2024-03-17T12:34:52;19.90;;;17.83;;
56039;SDS011;43937;41.366;2.072;2024-03-17T12:37:22;21.00;;;18.90;;
56039;SDS011;43937;41.366;2.072;2024-03-17T12:39:50;20.08;;;17.98;;
56039;SDS011;43937;41.366;2.072;2024-03-17T12:42:16;21.60;;;18.13;;
56039;SDS011;43937;41.366;2.072;2024-03-17T12:45:09;22.13;;;19.80;;
56039;SDS011;43937;41.366;2.072;2024-03-17T12:47:35;22.20;;;19.50;;
56039;SDS011;43937;41.366;2.072;2024-03-17T12:50:01;19.67;;;16.87;;
56039;SDS011;43937;41.366;2.072;2024-03-17T12:52:31;18.80;;;16.80;;
56039;SDS011;43937;41.366;2.072;2024-03-17T12:55:04;19.27;;;17.17;;
56039;SDS011;43937;41.366;2.072;2024-03-17T13:00:37;16.87;;;15.23;;
56039;SDS011;43937;41.366;2.072;2024-03-17T13:05:29;17.10;;;15.38;;
56039;SDS011;43937;41.366;2.072;2024-03-17T13:07:56;15.10;;;13.52;;
56039;SDS011;43937;41.366;2.072;2024-03-17T13:10:23;17.33;;;14.70;;
56039;SDS011;43937;41.366;2.072;2024-03-17T13:13:01;16.55;;;14.88;;
56039;SDS011;43937;41.366;2.072;2024-03-17T13:15:28;16.88;;;15.10;;
56039;SDS011;43937;41.366;2.072;2024-03-17T13:17:58;19.38;;;15.48;;
56039;SDS011;43937;41.366;2.072;2024-03-17T13:20:23;16.60;;;14.88;;
56039;SDS011;43937;41.366;2.072;2024-03-17T13:22:49;16.13;;;13.70;;
56039;SDS011;43937;41.366;2.072;2024-03-17T13:25:15;17.60;;;14.48;;
56039;SDS011;43937;41.366;2.072;2024-03-17T13:27:49;16.42;;;13.68;;
56039;SDS011;43937;41.366;2.072;2024-03-17T13:30:16;17.27;;;14.13;;
56039;SDS011;43937;41.366;2.072;2024-03-17T13:32:43;19.05;;;16.40;;
56039;SDS011;43937;41.366;2.072;2024-03-17T13:35:16;22.02;;;19.05;;
56039;SDS011;43937;41.366;2.072;2024-03-17T13:37:46;27.65;;;19.52;;
56039;SDS011;43937;41.366;2.072;2024-03-17T13:40:16;16.63;;;14.82;;
56039;SDS011;43937;41.366;2.072;2024-03-17T13:42:46;22.35;;;17.05;;
56039;SDS011;43937;41.366;2.072;2024-03-17T13:45:14;18.05;;;15.93;;
56039;SDS011;43937;41.366;2.072;2024-03-17T13:47:39;22.52;;;16.63;;
56039;SDS011;43937;41.366;2.072;2024-03-17T13:50:05;16.33;;;14.23;;
56039;SDS011;43937;41.366;2.072;2024-03-17T13:52:39;17.00;;;14.80;;
56039;SDS011;43937;41.366;2.072;2024-03-17T13:55:05;17.25;;;14.55;;
56039;SDS011;43937;41.366;2.072;2024-03-17T13:57:34;17.43;;;14.97;;
56039;SDS011;43937;41.366;2.072;2024-03-17T14:00:00;16.05;;;14.45;;
56039;SDS011;43937;41.366;2.072;2024-03-17T14:02:25;17.00;;;14.73;;
56039;SDS011;43937;41.366;2.072;2024-03-17T14:04:51;18.13;;;15.10;;
56039;SDS011;43937;41.366;2.072;2024-03-17T14:07:16;20.23;;;14.53;;
56039;SDS011;43937;41.366;2.072;2024-03-17T14:09:41;16.40;;;14.37;;
56039;SDS011;43937;41.366;2.072;2024-03-17T14:12:07;16.60;;;14.67;;
56039;SDS011;43937;41.366;2.072;2024-03-17T14:14:33;18.08;;;15.35;;
56039;SDS011;43937;41.366;2.072;2024-03-17T14:16:59;16.52;;;14.55;;
56039;SDS011;43937;41.366;2.072;2024-03-17T14:19:25;17.67;;;14.60;;
56039;SDS011;43937;41.366;2.072;2024-03-17T14:21:50;17.67;;;14.03;;
56039;SDS011;43937;41.366;2.072;2024-03-17T14:24:16;15.90;;;13.25;;
56039;SDS011;43937;41.366;2.072;2024-03-17T14:26:42;18.55;;;14.02;;
56039;SDS011;43937;41.366;2.072;2024-03-17T14:29:07;15.10;;;13.50;;
56039;SDS011;43937;41.366;2.072;2024-03-17T14:31:33;19.37;;;17.10;;
56039;SDS011;43937;41.366;2.072;2024-03-17T14:34:02;49.42;;;42.13;;
56039;SDS011;43937;41.366;2.072;2024-03-17T14:36:33;19.88;;;16.95;;
56039;SDS011;43937;41.366;2.072;2024-03-17T14:38:59;25.23;;;22.00;;
56039;SDS011;43937;41.366;2.072;2024-03-17T14:41:28;18.02;;;15.35;;
56039;SDS011;43937;41.366;2.072;2024-03-17T14:43:57;16.65;;;14.05;;
56039;SDS011;43937;41.366;2.072;2024-03-17T14:46:23;15.10;;;13.10;;
56039;SDS011;43937;41.366;2.072;2024-03-17T14:48:50;15.98;;;14.27;;
56039;SDS011;43937;41.366;2.072;2024-03-17T14:51:18;16.13;;;13.25;;
56039;SDS011;43937;41.366;2.072;2024-03-17T14:53:44;14.48;;;12.90;;
56039;SDS011;43937;41.366;2.072;2024-03-17T14:56:14;15.75;;;13.85;;